createdAt,value
2018-11-03T00:00:37.181Z,24.60
2018-11-03T00:01:15.383Z,24.60
2018-11-03T00:01:54.126Z,24.60
2018-11-03T00:02:32.789Z,24.70
2018-11-03T00:03:11.068Z,24.70
2018-11-03T00:03:49.206Z,24.80
2018-11-03T00:04:28.061Z,24.80
2018-11-03T00:05:06.394Z,24.90
2018-11-03T00:05:44.840Z,24.90
2018-11-03T00:06:23.319Z,25.00
2018-11-03T00:07:01.797Z,25.00
2018-11-03T00:07:39.779Z,25.00
2018-11-03T00:08:19.115Z,24.90
2018-11-03T00:08:57.616Z,24.80
2018-11-03T00:09:35.892Z,24.70
2018-11-03T00:10:14.745Z,24.60
2018-11-03T00:10:52.691Z,24.60
2018-11-03T00:11:30.677Z,24.60
2018-11-03T00:12:08.936Z,24.60
2018-11-03T00:12:47.532Z,24.70
2018-11-03T00:13:26.069Z,24.70
2018-11-03T00:14:04.791Z,24.70
2018-11-03T00:14:44.654Z,24.80
2018-11-03T00:15:23.034Z,24.80
2018-11-03T00:16:01.427Z,24.90
2018-11-03T00:16:39.607Z,24.90
2018-11-03T00:17:20.415Z,25.00
2018-11-03T00:17:58.507Z,25.00
2018-11-03T00:18:36.653Z,24.90
2018-11-03T00:19:15.105Z,24.90
2018-11-03T00:19:53.767Z,24.80
2018-11-03T00:20:32.491Z,24.70
2018-11-03T00:21:11.184Z,24.70
2018-11-03T00:21:50.244Z,24.70
2018-11-03T00:22:28.851Z,24.70
2018-11-03T00:23:09.225Z,24.70
2018-11-03T00:23:47.638Z,24.80
2018-11-03T00:24:26.278Z,24.80
2018-11-03T00:25:04.933Z,24.80
2018-11-03T00:25:44.948Z,24.90
2018-11-03T00:26:23.266Z,24.90
2018-11-03T00:27:01.748Z,24.90
2018-11-03T00:27:40.226Z,25.00
2018-11-03T00:28:18.181Z,25.00
2018-11-03T00:28:56.501Z,25.00
2018-11-03T00:29:34.860Z,24.90
2018-11-03T00:30:15.603Z,24.80
2018-11-03T00:30:54.253Z,24.80
2018-11-03T00:31:32.468Z,24.70
2018-11-03T00:32:11.166Z,24.60
2018-11-03T00:32:49.613Z,24.60
2018-11-03T00:33:28.143Z,24.60
2018-11-03T00:34:06.512Z,24.60
2018-11-03T00:34:45.495Z,24.60
2018-11-03T00:35:23.866Z,24.70
2018-11-03T00:36:02.154Z,24.70
2018-11-03T00:36:40.420Z,24.80
2018-11-03T00:37:18.443Z,24.80
2018-11-03T00:37:57.320Z,24.90
2018-11-03T00:38:35.444Z,24.90
2018-11-03T00:39:14.836Z,24.90
2018-11-03T00:39:53.376Z,24.90
2018-11-03T00:40:31.818Z,24.90
2018-11-03T00:41:10.059Z,24.70
2018-11-03T00:41:48.672Z,24.70
2018-11-03T00:42:27.289Z,24.60
2018-11-03T00:43:05.448Z,24.60
2018-11-03T00:43:43.996Z,24.60
2018-11-03T00:44:22.552Z,24.60
2018-11-03T00:45:00.749Z,24.60
2018-11-03T00:45:39.489Z,24.70
2018-11-03T00:46:17.755Z,24.70
2018-11-03T00:46:55.812Z,24.70
2018-11-03T00:47:34.323Z,24.80
2018-11-03T00:48:14.262Z,24.80
2018-11-03T00:48:52.678Z,24.90
2018-11-03T00:49:30.912Z,24.90
2018-11-03T00:50:10.841Z,25.00
2018-11-03T00:50:48.805Z,24.90
2018-11-03T00:51:26.967Z,24.90
2018-11-03T00:52:05.939Z,24.80
2018-11-03T00:52:43.960Z,24.70
2018-11-03T00:53:22.681Z,24.70
2018-11-03T00:54:00.576Z,24.60
2018-11-03T00:54:38.757Z,24.70
2018-11-03T00:55:16.953Z,24.70
2018-11-03T00:55:54.940Z,24.80
2018-11-03T00:56:32.980Z,24.80
2018-11-03T00:57:11.513Z,24.90
2018-11-03T00:57:49.756Z,24.90
2018-11-03T00:58:27.909Z,24.90
2018-11-03T00:59:06.695Z,25.00
2018-11-03T00:59:45.068Z,25.00
2018-11-03T01:00:22.974Z,25.00
2018-11-03T01:01:01.532Z,25.00
2018-11-03T01:01:40.131Z,24.90
2018-11-03T01:02:18.751Z,24.90
2018-11-03T01:02:57.002Z,24.80
2018-11-03T01:03:35.412Z,24.70
2018-11-03T01:04:14.985Z,24.70
2018-11-03T01:04:55.857Z,24.70
2018-11-03T01:05:34.415Z,24.70
2018-11-03T01:06:15.048Z,24.80
2018-11-03T01:06:54.801Z,24.80
2018-11-03T01:07:34.282Z,24.90
2018-11-03T01:08:12.904Z,24.90
2018-11-03T01:08:51.131Z,24.90
2018-11-03T01:09:30.490Z,25.00
2018-11-03T01:10:09.169Z,25.00
2018-11-03T01:10:48.192Z,25.00
2018-11-03T01:11:27.171Z,25.00
2018-11-03T01:12:06.308Z,24.90
2018-11-03T01:12:45.529Z,24.80
2018-11-03T01:13:27.244Z,24.70
2018-11-03T01:14:05.736Z,24.70
2018-11-03T01:14:44.320Z,24.60
2018-11-03T01:15:24.172Z,24.60
2018-11-03T01:16:03.542Z,24.60
2018-11-03T01:16:43.033Z,24.70
2018-11-03T01:17:21.895Z,24.70
2018-11-03T01:18:00.819Z,24.70
2018-11-03T01:18:40.864Z,24.80
2018-11-03T01:19:19.208Z,24.90
2018-11-03T01:19:57.682Z,24.90
2018-11-03T01:20:36.800Z,24.90
2018-11-03T01:21:15.554Z,25.00
2018-11-03T01:21:54.140Z,25.00
2018-11-03T01:22:33.365Z,24.90
2018-11-03T01:23:11.479Z,24.90
2018-11-03T01:23:50.154Z,24.80
2018-11-03T01:24:28.598Z,24.70
2018-11-03T01:25:06.700Z,24.70
2018-11-03T01:25:46.209Z,24.70
2018-11-03T01:26:24.728Z,24.70
2018-11-03T01:27:02.904Z,24.70
2018-11-03T01:27:41.428Z,24.70
2018-11-03T01:28:19.925Z,24.80
2018-11-03T01:28:58.140Z,24.90
2018-11-03T01:29:36.859Z,24.90
2018-11-03T01:30:16.791Z,24.90
2018-11-03T01:30:56.527Z,25.00
2018-11-03T01:31:34.892Z,25.00
2018-11-03T01:32:13.321Z,25.00
2018-11-03T01:32:51.402Z,25.00
2018-11-03T01:33:31.139Z,24.90
2018-11-03T01:34:09.259Z,24.80
2018-11-03T01:34:47.365Z,24.70
2018-11-03T01:35:25.412Z,24.70
2018-11-03T01:36:03.460Z,24.70
2018-11-03T01:36:41.473Z,24.70
2018-11-03T01:37:19.375Z,24.70
2018-11-03T01:37:57.326Z,24.80
2018-11-03T01:38:36.186Z,24.80
2018-11-03T01:39:14.949Z,24.90
2018-11-03T01:39:53.097Z,24.90
2018-11-03T01:40:32.308Z,24.90
2018-11-03T01:41:11.071Z,25.00
2018-11-03T01:41:49.679Z,25.00
2018-11-03T01:42:28.033Z,25.00
2018-11-03T01:43:06.770Z,25.00
2018-11-03T01:43:45.364Z,24.90
2018-11-03T01:44:24.564Z,24.90
2018-11-03T01:45:03.179Z,24.80
2018-11-03T01:45:41.371Z,24.70
2018-11-03T01:46:19.709Z,24.60
2018-11-03T01:46:58.058Z,24.60
2018-11-03T01:47:36.684Z,24.60
2018-11-03T01:48:14.903Z,24.60
2018-11-03T01:48:53.396Z,24.70
2018-11-03T01:49:32.496Z,24.70
2018-11-03T01:50:13.818Z,24.80
2018-11-03T01:50:52.293Z,24.80
2018-11-03T01:51:31.279Z,24.90
2018-11-03T01:52:09.725Z,24.90
2018-11-03T01:52:48.091Z,25.00
2018-11-03T01:53:26.537Z,25.00
2018-11-03T01:54:05.016Z,25.00
2018-11-03T01:54:43.270Z,25.00
2018-11-03T01:55:24.351Z,24.90
2018-11-03T01:56:02.610Z,24.90
2018-11-03T01:56:40.687Z,24.90
2018-11-03T01:57:18.900Z,24.80
2018-11-03T01:57:57.442Z,24.80
2018-11-03T01:58:35.496Z,24.80
2018-11-03T01:59:14.228Z,24.90
2018-11-03T01:59:52.721Z,24.90
2018-11-03T02:00:31.662Z,24.90
2018-11-03T02:01:11.054Z,25.00
2018-11-03T02:01:49.437Z,25.00
2018-11-03T02:02:27.415Z,25.10
2018-11-03T02:03:05.794Z,25.20
2018-11-03T02:03:45.480Z,25.20
2018-11-03T02:04:23.896Z,25.10
2018-11-03T02:05:02.017Z,25.10
2018-11-03T02:05:40.267Z,25.00
2018-11-03T02:06:18.286Z,25.00
2018-11-03T02:06:57.152Z,24.80
2018-11-03T02:07:35.532Z,24.70
2018-11-03T02:08:14.135Z,24.70
2018-11-03T02:08:52.343Z,24.60
2018-11-03T02:09:31.471Z,24.60
2018-11-03T02:10:11.235Z,24.60
2018-11-03T02:10:49.836Z,24.70
2018-11-03T02:11:28.028Z,24.70
2018-11-03T02:12:07.321Z,24.70
2018-11-03T02:12:45.877Z,24.80
2018-11-03T02:13:23.819Z,24.80
2018-11-03T02:14:02.016Z,24.80
2018-11-03T02:14:40.251Z,24.90
2018-11-03T02:15:20.126Z,24.90
2018-11-03T02:15:59.484Z,25.00
2018-11-03T02:16:38.020Z,25.00
2018-11-03T02:17:16.428Z,25.10
2018-11-03T02:17:55.896Z,25.20
2018-11-03T02:18:34.020Z,25.20
2018-11-03T02:19:13.675Z,25.30
2018-11-03T02:19:52.703Z,25.30
2018-11-03T02:20:32.244Z,25.40
2018-11-03T02:21:10.575Z,25.40
2018-11-03T02:21:49.140Z,25.40
2018-11-03T02:22:27.308Z,25.50
2018-11-03T02:23:05.881Z,25.50
2018-11-03T02:23:44.256Z,25.50
2018-11-03T02:24:22.818Z,25.60
2018-11-03T02:25:00.948Z,25.60
2018-11-03T02:25:39.244Z,25.60
2018-11-03T02:26:17.175Z,25.60
2018-11-03T02:26:55.642Z,25.70
2018-11-03T02:27:33.972Z,25.70
2018-11-03T02:28:12.623Z,25.70
2018-11-03T02:28:51.151Z,25.70
2018-11-03T02:29:29.503Z,25.70
2018-11-03T02:30:09.146Z,25.80
2018-11-03T02:30:47.112Z,25.70
2018-11-03T02:31:25.544Z,25.80
2018-11-03T02:32:04.168Z,25.80
2018-11-03T02:32:43.884Z,25.80
2018-11-03T02:33:22.840Z,25.80
2018-11-03T02:34:01.486Z,25.90
2018-11-03T02:34:39.821Z,25.80
2018-11-03T02:35:18.099Z,25.90
2018-11-03T02:35:56.856Z,25.90
2018-11-03T02:36:35.418Z,25.90
2018-11-03T02:37:14.004Z,26.00
2018-11-03T02:37:53.714Z,25.90
2018-11-03T02:38:31.904Z,26.00
2018-11-03T02:39:11.904Z,26.00
2018-11-03T02:39:49.815Z,26.00
2018-11-03T02:40:28.532Z,26.00
2018-11-03T02:41:08.208Z,26.00
2018-11-03T02:41:46.689Z,26.00
2018-11-03T02:42:26.322Z,26.00
2018-11-03T02:43:07.104Z,26.10
2018-11-03T02:43:45.489Z,26.10
2018-11-03T02:44:24.173Z,26.10
2018-11-03T02:45:02.649Z,26.10
2018-11-03T02:45:41.241Z,26.10
2018-11-03T02:46:19.758Z,26.10
2018-11-03T02:46:59.454Z,26.20
2018-11-03T02:47:37.761Z,26.20
2018-11-03T02:48:15.796Z,26.10
2018-11-03T02:48:53.914Z,26.10
2018-11-03T02:49:32.741Z,26.20
2018-11-03T02:50:13.259Z,26.20
2018-11-03T02:50:52.138Z,26.20
2018-11-03T02:51:30.882Z,26.20
2018-11-03T02:52:09.124Z,26.20
2018-11-03T02:52:48.316Z,26.20
2018-11-03T02:53:27.783Z,26.20
2018-11-03T02:54:06.449Z,26.20
2018-11-03T02:54:44.776Z,26.20
2018-11-03T02:55:23.166Z,26.30
2018-11-03T02:56:01.942Z,26.20
2018-11-03T02:56:40.468Z,26.30
2018-11-03T02:57:18.780Z,26.30
2018-11-03T02:57:57.069Z,26.30
2018-11-03T02:58:35.408Z,26.30
2018-11-03T02:59:14.203Z,26.30
2018-11-03T02:59:52.237Z,26.30
2018-11-03T03:00:30.820Z,26.40
2018-11-03T03:01:08.823Z,26.30
2018-11-03T03:01:47.232Z,26.40
2018-11-03T03:02:25.113Z,26.40
2018-11-03T03:03:03.813Z,26.40
2018-11-03T03:03:42.155Z,26.40
2018-11-03T03:04:21.065Z,26.40
2018-11-03T03:04:59.760Z,26.40
